METAR (acronimo di METeorological Air Report) è un messaggio meteo emesso nella maggior parte dei casi in ambito aeroportuale

GMME - Rabat, Morocco
Ultimo Aggiornamento: Mercoledì 25 Novembre 2020 20:30 CET
Parzialmente Nuvoloso
Parzialmente Nuvoloso
 Wind from Sud-Sud-Ovest
Vento: Sud-Sud-Ovest 9 km/h
Temperatura: 14°C
Punto di Rugiada: 14°C
Umidità: 100%
Barometro: 1011 hPa
Nuvole: Parzialmente Nuvoloso
Visibilità: 8 km
Nuvole nel Dettaglio: Parzialmente Nuvoloso 610 m
Parzialmente Nuvoloso 3048 m
2020/11/25 19:30 GMME 251930Z 20005KT 8000 SCT020 SCT100 14/14 Q1011 NOSIG
DTTA - Tunis-Carthage International Airport, Tunisia
Ultimo Aggiornamento: Mercoledì 25 Novembre 2020 20:30 CET
Qualche Nuvola
Qualche Nuvola
 Wind from Est-Sud-Est
Vento: Est-Sud-Est 6 km/h
Temperatura: 14°C
Punto di Rugiada: 11°C
Umidità: 82%
Barometro: 1020 hPa
Nuvole: Qualche Nuvola
Visibilità: 10 km
Nuvole nel Dettaglio: Qualche Nuvola 914 m
2020/11/25 19:30 DTTA 251930Z 12003KT 080V170 9999 FEW030 14/11 Q1020
HSSS - Khartoum, Sudan
Ultimo Aggiornamento: Mercoledì 25 Novembre 2020 20:30 CET
Sereno
Sereno
 Wind from Nord-Nord-Ovest
Vento: Nord-Nord-Ovest 19 km/h
Temperatura: 27°C
Punto di Rugiada: -2°C
Umidità: 15%
Barometro: 1013 hPa
Condizioni: Sereno
Visibilità: superiore a 10 km
2020/11/25 19:30 HSSS 251930Z 33010KT CAVOK 27/M02 Q1013 NOSIG
 
DAAG - Algiers Houari Boumediene Airport, Algeria
Ultimo Aggiornamento: Mercoledì 25 Novembre 2020 20:30 CET
Sereno
Sereno
 Wind from varies
Vento: variabile 4 km/h
Temperatura: 11°C
Punto di Rugiada: 7°C
Umidità: 77%
Barometro: 1016 hPa
Condizioni: Sereno
Visibilità: superiore a 10 km
2020/11/25 19:30 DAAG 251930Z VRB02KT CAVOK 11/07 Q1016
HECA - Cairo International Airport, Egypt
Ultimo Aggiornamento: Mercoledì 25 Novembre 2020 21:00 CET
Parzialmente Nuvoloso
Parzialmente Nuvoloso
 Wind from Sud-Ovest
Vento: Sud-Ovest 15 km/h
Temperatura: 16°C
Punto di Rugiada: 11°C
Umidità: 72%
Barometro: 1014 hPa
Nuvole: Parzialmente Nuvoloso
Visibilità: 10 km
Nuvole nel Dettaglio: Parzialmente Nuvoloso 762 m
2020/11/25 20:00 HECA 252000Z 22008KT 9999 SCT025 16/11 Q1014 NOSIG
FTTJ - N’Djamena, Chad
Ultimo Aggiornamento: Mercoledì 25 Novembre 2020 20:00 CET
Parzialmente Nuvoloso
Parzialmente Nuvoloso
 Wind from Nord-Nord-Est
Vento: Nord-Nord-Est 7 km/h
Temperatura: 25°C
Punto di Rugiada: 7°C
Umidità: 32%
Barometro: 1011 hPa
Nuvole: Parzialmente Nuvoloso
Visibilità: 8 km
2020/11/25 19:00 FTTJ 251900Z 02004KT 8000 NSC 25/07 Q1011 NOSIG
 
FEFF - Bangui, Central African Republic
Ultimo Aggiornamento: Mercoledì 25 Novembre 2020 20:00 CET
Qualche Nuvola
Qualche Nuvola
 Wind from varies
Vento: variabile 6 km/h
Temperatura: 28°C
Heat Index: 31°C
Punto di Rugiada: 23°C
Umidità: 74%
Barometro: 1010 hPa
Nuvole: Qualche Nuvola
Visibilità: 6 km
Nuvole nel Dettaglio: Qualche Nuvola 396 m
2020/11/25 19:00 FEFF 251900Z VRB03KT 6000 FEW013 28/23 Q1010 NOSIG
HBBA - Bujumbura, Burundi
Ultimo Aggiornamento: Martedì 24 Novembre 2020 11:00 CET
Dati non Recenti
Heavy rain, Temporale
Heavy rain, Temporale
 Wind from Sud
Vento: Sud 7 km/h
Condizioni: Heavy Rain
Nuvole: Temporale
Visibilità: 6 km
Nuvole nel Dettaglio: Parzialmente Nuvoloso 610 m
2020/11/24 10:00 HBBA 241000Z 18004KT 6000 +RA SCT020 TCU OVC100 25/21 Q 1013 NOSIG
FMEE - Saint-Denis, Reunion
Ultimo Aggiornamento: Mercoledì 25 Novembre 2020 20:30 CET
Temporale
Temporale
 Wind from Est-Sud-Est
Vento: Est-Sud-Est 30 km/h
Temperatura: 25°C
Punto di Rugiada: 19°C
Umidità: 69%
Barometro: 1016 hPa
Nuvole: Temporale
Visibilità: 10 km
2020/11/25 19:30 FMEE 251930Z AUTO 11016KT 9999 ///CB 25/19 Q1016 TEMPO 3000 SHRA
 
DIAP - Abidjan, Ivory coast
Ultimo Aggiornamento: Mercoledì 25 Novembre 2020 20:30 CET
Qualche Nuvola
Qualche Nuvola
 Wind from Ovest-Sud-Ovest
Vento: Ovest-Sud-Ovest 13 km/h
Temperatura: 28°C
Heat Index: 32°C
Punto di Rugiada: 25°C
Umidità: 84%
Barometro: 1010 hPa
Nuvole: Qualche Nuvola
Visibilità: 10 km
Nuvole nel Dettaglio: Qualche Nuvola 396 m
2020/11/25 19:30 DIAP 251930Z 24007KT 9999 FEW013 28/25 Q1010 NOSIG
GUCY - Conakry, Guinea
Ultimo Aggiornamento: Lunedì 23 Novembre 2020 13:00 CET
Dati non Recenti
Parzialmente Nuvoloso
Parzialmente Nuvoloso
 Wind from Sud
Vento: Sud 19 km/h
Temperatura: 30°C
Heat Index: 37°C
Punto di Rugiada: 26°C
Umidità: 79%
Barometro: 1013 hPa
Nuvole: Parzialmente Nuvoloso
Visibilità: 10 km
Nuvole nel Dettaglio: Prevalentemente Nuvoloso 457 m
Parzialmente Nuvoloso 3353 m
2020/11/23 12:00 GUCY 231200Z 18010KT 9999 BKN015 SCT110 30/26 Q1013 NOSIG
GABS - Bamako, Mali
Ultimo Aggiornamento: Mercoledì 25 Novembre 2020 20:30 CET
Sereno
Sereno
 Wind from Nord-Nord-Est
Vento: Nord-Nord-Est 4 km/h
Temperatura: 22°C
Punto di Rugiada: 6°C
Umidità: 36%
Barometro: 1014 hPa
Condizioni: Sereno
Visibilità: superiore a 10 km
2020/11/25 19:30 GABS 251930Z 02002KT CAVOK 22/06 Q1014 NOSIG
 
DRRN - Niamey, Niger
Ultimo Aggiornamento: Mercoledì 25 Novembre 2020 20:00 CET
Polverosità Diffusa, Parzialmente Nuvoloso
Polverosità Diffusa, Parzialmente Nuvoloso
 Wind from Ovest-Nord-Ovest
Vento: Ovest-Nord-Ovest 7 km/h
Temperatura: 30°C
Punto di Rugiada: 2°C
Umidità: 17%
Barometro: 1010 hPa
Condizioni: Polverosità Diffusa
Nuvole: Parzialmente Nuvoloso
Visibilità: 4 km
2020/11/25 19:00 DRRN 251900Z 29004KT 4000 DU NSC 30/02 Q1010 NOSIG
DFFD - Ouagadougou, Burkina Faso
Ultimo Aggiornamento: Mercoledì 25 Novembre 2020 20:00 CET
Sereno
Sereno
 Wind from Nord
Vento: Nord 6 km/h
Temperatura: 27°C
Punto di Rugiada: 7°C
Umidità: 28%
Barometro: 1010 hPa
Condizioni: Sereno
Visibilità: superiore a 10 km
2020/11/25 19:00 DFFD 251900Z 35003KT CAVOK 27/07 Q1010 NOSIG
DNMM - Lagos, Nigeria
Ultimo Aggiornamento: Mercoledì 25 Novembre 2020 20:00 CET
Qualche Nuvola
Qualche Nuvola
 Wind from Sud
Vento: Sud 7 km/h
Temperatura: 27°C
Heat Index: 31°C
Punto di Rugiada: 25°C
Umidità: 89%
Barometro: 1010 hPa
Nuvole: Qualche Nuvola
Visibilità: 10 km
Nuvole nel Dettaglio: Qualche Nuvola 335 m
2020/11/25 19:00 DNMM 251900Z 19004KT 9999 FEW011 27/25 Q1010 NOSIG
 
HKJK - Nairobi Jomo Kenyatta International Airport, Kenya
Ultimo Aggiornamento: Lunedì 23 Novembre 2020 13:00 CET
Dati non Recenti
Prevalentemente Nuvoloso
Prevalentemente Nuvoloso
 Wind from Est-Nord-Est
Vento: Est-Nord-Est 20 km/h
Temperatura: 27°C
Heat Index: 27°C
Punto di Rugiada: 13°C
Umidità: 42%
Barometro: 1019 hPa
Nuvole: Prevalentemente Nuvoloso
Visibilità: 10 km
Nuvole nel Dettaglio: Prevalentemente Nuvoloso 823 m
2020/11/23 12:00 HKJK 231200Z 06011KT 9999 BKN027 27/13 Q1019 NOSIG
FZAA - Kinshasa, Congo
Ultimo Aggiornamento: Mercoledì 25 Novembre 2020 15:00 CET
Dati non Recenti
Qualche Nuvola
Qualche Nuvola
 Wind from Nord-Ovest
Vento: Nord-Ovest 19 km/h
Temperatura: 32°C
Heat Index: 36°C
Punto di Rugiada: 22°C
Umidità: 55%
Barometro: 1008 hPa
Nuvole: Qualche Nuvola
Visibilità: 10 km
Nuvole nel Dettaglio: Qualche Nuvola 671 m
Qualche Nuvola 914 m
2020/11/25 14:00 FZAA 251400Z 32010KT 9999 FEW022 FEW030CB 32/22 Q1008 NOSIG
FLKK - Lusaka, Zambia
Ultimo Aggiornamento: Mercoledì 25 Novembre 2020 20:00 CET
Sereno
Sereno
 Wind from Sud-Sud-Ovest
Vento: Sud-Sud-Ovest 9 km/h
Temperatura: 27°C
Heat Index: 28°C
Punto di Rugiada: 18°C
Umidità: 58%
Barometro: 1017 hPa
Condizioni: Sereno
Visibilità: superiore a 10 km
2020/11/25 19:00 FLKK 251900Z 21005KT CAVOK 27/18 Q1017
 
FAOR - Johannesburg, South Africa
Ultimo Aggiornamento: Mercoledì 25 Novembre 2020 20:30 CET
Sereno
Sereno
 Wind from Est-Sud-Est
Vento: Est-Sud-Est 17 km/h
Temperatura: 19°C
Punto di Rugiada: 7°C
Umidità: 46%
Barometro: 1021 hPa
Condizioni: Sereno
Visibilità: superiore a 10 km
2020/11/25 19:30 FAOR 251930Z 12009KT CAVOK 19/07 Q1021 NOSIG
FACT - Cape Town, South Africa
Ultimo Aggiornamento: Mercoledì 25 Novembre 2020 20:00 CET
Qualche Nuvola
Qualche Nuvola
 Wind from Sud-Sud-Ovest
Vento: Sud-Sud-Ovest 13 km/h
Temperatura: 15°C
Punto di Rugiada: 7°C
Umidità: 59%
Barometro: 1020 hPa
Nuvole: Qualche Nuvola
Visibilità: 10 km
Nuvole nel Dettaglio: Qualche Nuvola 1219 m
2020/11/25 19:00 FACT 251900Z 21007KT 9999 FEW040 15/07 Q1020 NOSIG
FIMP - Mauritius Sir Seewoosagur Ramgoolam International Airport, Mauritius
Ultimo Aggiornamento: Mercoledì 25 Novembre 2020 20:00 CET
Acquazzoni nelle vicinanze, Prevalentemente Nuvoloso
Acquazzoni nelle vicinanze, Prevalentemente Nuvoloso
 Wind from Est
Vento: Est 24 km/h
Temperatura: 25°C
Punto di Rugiada: 23°C
Umidità: 89%
Barometro: 1018 hPa
Condizioni: Acquazzoni nelle vicinanze
Nuvole: Prevalentemente Nuvoloso
Visibilità: 10 km
Nuvole nel Dettaglio: Prevalentemente Nuvoloso 427 m
2020/11/25 19:00 FIMP 251900Z 08013KT 9999 VCSH BKN014 25/23 Q1018